sensor_id;sensor_type;location;lat;lon;timestamp;temperature;humidity
31455;DHT22;18084;53.028;8.834;2023-12-20T00:01:26;5.40;99.90
31455;DHT22;18084;53.028;8.834;2023-12-20T00:03:51;5.50;99.90
31455;DHT22;18084;53.028;8.834;2023-12-20T00:06:18;5.50;99.90
31455;DHT22;18084;53.028;8.834;2023-12-20T00:08:44;5.50;99.90
31455;DHT22;18084;53.028;8.834;2023-12-20T00:11:09;5.50;99.90
31455;DHT22;18084;53.028;8.834;2023-12-20T00:13:35;5.50;99.90
31455;DHT22;18084;53.028;8.834;2023-12-20T00:16:00;5.40;99.90
31455;DHT22;18084;53.028;8.834;2023-12-20T00:18:25;5.10;99.90
31455;DHT22;18084;53.028;8.834;2023-12-20T00:20:51;5.30;99.90
31455;DHT22;18084;53.028;8.834;2023-12-20T00:23:17;5.30;99.90
31455;DHT22;18084;53.028;8.834;2023-12-20T00:25:42;5.40;99.90
31455;DHT22;18084;53.028;8.834;2023-12-20T00:28:09;5.40;99.90
31455;DHT22;18084;53.028;8.834;2023-12-20T00:30:34;5.30;99.90
31455;DHT22;18084;53.028;8.834;2023-12-20T00:32:59;5.30;99.90
31455;DHT22;18084;53.028;8.834;2023-12-20T00:35:25;5.30;99.90
31455;DHT22;18084;53.028;8.834;2023-12-20T00:37:50;5.20;99.90
31455;DHT22;18084;53.028;8.834;2023-12-20T00:40:16;5.30;99.90
31455;DHT22;18084;53.028;8.834;2023-12-20T00:42:42;5.30;99.90
31455;DHT22;18084;53.028;8.834;2023-12-20T00:45:07;5.30;99.90
31455;DHT22;18084;53.028;8.834;2023-12-20T00:47:33;5.20;99.90
31455;DHT22;18084;53.028;8.834;2023-12-20T00:49:58;5.30;99.90
31455;DHT22;18084;53.028;8.834;2023-12-20T00:52:24;5.10;99.90
31455;DHT22;18084;53.028;8.834;2023-12-20T00:54:51;5.10;99.90
31455;DHT22;18084;53.028;8.834;2023-12-20T00:57:17;5.20;99.90
31455;DHT22;18084;53.028;8.834;2023-12-20T00:59:42;5.20;99.90
31455;DHT22;18084;53.028;8.834;2023-12-20T01:02:08;5.10;99.90
31455;DHT22;18084;53.028;8.834;2023-12-20T01:04:34;5.10;99.90
31455;DHT22;18084;53.028;8.834;2023-12-20T01:07:00;5.10;99.90
31455;DHT22;18084;53.028;8.834;2023-12-20T01:09:25;5.10;99.90
31455;DHT22;18084;53.028;8.834;2023-12-20T01:11:53;4.90;99.90
31455;DHT22;18084;53.028;8.834;2023-12-20T01:14:19;5.10;99.90
31455;DHT22;18084;53.028;8.834;2023-12-20T01:16:44;4.90;99.90
31455;DHT22;18084;53.028;8.834;2023-12-20T01:19:10;5.10;99.90
31455;DHT22;18084;53.028;8.834;2023-12-20T01:21:35;5.00;99.90
31455;DHT22;18084;53.028;8.834;2023-12-20T01:24:00;5.10;99.90
31455;DHT22;18084;53.028;8.834;2023-12-20T01:26:26;5.00;99.90
31455;DHT22;18084;53.028;8.834;2023-12-20T01:28:51;5.10;99.90
31455;DHT22;18084;53.028;8.834;2023-12-20T01:31:17;5.20;99.90
31455;DHT22;18084;53.028;8.834;2023-12-20T01:33:42;5.20;99.90
31455;DHT22;18084;53.028;8.834;2023-12-20T01:36:08;5.10;99.90
31455;DHT22;18084;53.028;8.834;2023-12-20T01:38:33;5.30;99.90
31455;DHT22;18084;53.028;8.834;2023-12-20T01:40:59;5.20;99.90
31455;DHT22;18084;53.028;8.834;2023-12-20T01:43:25;5.30;99.90
31455;DHT22;18084;53.028;8.834;2023-12-20T01:45:51;5.40;99.90
31455;DHT22;18084;53.028;8.834;2023-12-20T01:48:16;5.40;99.90
31455;DHT22;18084;53.028;8.834;2023-12-20T01:50:42;5.40;99.90
31455;DHT22;18084;53.028;8.834;2023-12-20T01:53:09;5.20;99.90
31455;DHT22;18084;53.028;8.834;2023-12-20T01:55:36;5.30;99.90
31455;DHT22;18084;53.028;8.834;2023-12-20T01:58:03;5.10;99.90
31455;DHT22;18084;53.028;8.834;2023-12-20T02:00:29;5.30;99.90
31455;DHT22;18084;53.028;8.834;2023-12-20T02:02:55;5.00;99.90
31455;DHT22;18084;53.028;8.834;2023-12-20T02:05:21;5.10;99.90
31455;DHT22;18084;53.028;8.834;2023-12-20T02:07:47;5.10;99.90
31455;DHT22;18084;53.028;8.834;2023-12-20T02:10:16;5.00;99.90
31455;DHT22;18084;53.028;8.834;2023-12-20T02:12:41;5.10;99.90
31455;DHT22;18084;53.028;8.834;2023-12-20T02:15:07;5.00;99.90
31455;DHT22;18084;53.028;8.834;2023-12-20T02:17:32;4.90;99.90
31455;DHT22;18084;53.028;8.834;2023-12-20T02:19:59;5.00;99.90
31455;DHT22;18084;53.028;8.834;2023-12-20T02:22:24;4.80;99.90
31455;DHT22;18084;53.028;8.834;2023-12-20T02:24:50;4.90;99.90
31455;DHT22;18084;53.028;8.834;2023-12-20T02:27:15;5.00;99.90
31455;DHT22;18084;53.028;8.834;2023-12-20T02:29:43;4.70;99.90
31455;DHT22;18084;53.028;8.834;2023-12-20T02:32:08;4.80;99.90
31455;DHT22;18084;53.028;8.834;2023-12-20T02:34:34;4.90;99.90
31455;DHT22;18084;53.028;8.834;2023-12-20T02:36:59;5.00;99.90
31455;DHT22;18084;53.028;8.834;2023-12-20T02:39:25;4.90;99.90
31455;DHT22;18084;53.028;8.834;2023-12-20T02:41:50;5.00;99.90
31455;DHT22;18084;53.028;8.834;2023-12-20T02:44:15;5.00;99.90
31455;DHT22;18084;53.028;8.834;2023-12-20T02:46:44;5.00;99.90
31455;DHT22;18084;53.028;8.834;2023-12-20T02:49:09;5.00;99.90
31455;DHT22;18084;53.028;8.834;2023-12-20T02:51:35;4.80;99.90
31455;DHT22;18084;53.028;8.834;2023-12-20T02:54:03;5.00;99.90
31455;DHT22;18084;53.028;8.834;2023-12-20T02:56:28;5.00;99.90
31455;DHT22;18084;53.028;8.834;2023-12-20T02:58:54;4.90;99.90
31455;DHT22;18084;53.028;8.834;2023-12-20T03:01:22;5.10;99.90
31455;DHT22;18084;53.028;8.834;2023-12-20T03:03:48;5.10;99.90
31455;DHT22;18084;53.028;8.834;2023-12-20T03:06:16;4.90;99.90
31455;DHT22;18084;53.028;8.834;2023-12-20T03:08:42;5.00;99.90
31455;DHT22;18084;53.028;8.834;2023-12-20T03:11:07;5.20;99.90
31455;DHT22;18084;53.028;8.834;2023-12-20T03:13:32;5.00;99.90
31455;DHT22;18084;53.028;8.834;2023-12-20T03:15:58;5.20;99.90
31455;DHT22;18084;53.028;8.834;2023-12-20T03:18:23;5.30;99.90
31455;DHT22;18084;53.028;8.834;2023-12-20T03:20:49;5.30;99.90
31455;DHT22;18084;53.028;8.834;2023-12-20T03:23:16;5.10;99.90
31455;DHT22;18084;53.028;8.834;2023-12-20T03:25:41;5.20;99.90
31455;DHT22;18084;53.028;8.834;2023-12-20T03:28:08;5.20;99.90
31455;DHT22;18084;53.028;8.834;2023-12-20T03:30:33;5.30;99.90
31455;DHT22;18084;53.028;8.834;2023-12-20T03:32:59;5.10;99.90
31455;DHT22;18084;53.028;8.834;2023-12-20T03:35:24;5.20;99.90
31455;DHT22;18084;53.028;8.834;2023-12-20T03:37:50;5.20;99.90
31455;DHT22;18084;53.028;8.834;2023-12-20T03:40:15;5.20;99.90
31455;DHT22;18084;53.028;8.834;2023-12-20T03:42:40;5.60;99.90
31455;DHT22;18084;53.028;8.834;2023-12-20T03:45:06;5.30;99.90
31455;DHT22;18084;53.028;8.834;2023-12-20T03:47:32;5.50;99.90
31455;DHT22;18084;53.028;8.834;2023-12-20T03:49:57;5.50;99.90
31455;DHT22;18084;53.028;8.834;2023-12-20T03:52:25;5.40;99.90
31455;DHT22;18084;53.028;8.834;2023-12-20T03:54:51;5.50;99.90
31455;DHT22;18084;53.028;8.834;2023-12-20T03:57:18;8.20;99.90
31455;DHT22;18084;53.028;8.834;2023-12-20T03:59:44;5.50;99.90
31455;DHT22;18084;53.028;8.834;2023-12-20T04:02:09;5.50;99.90
31455;DHT22;18084;53.028;8.834;2023-12-20T04:04:34;5.40;99.90
31455;DHT22;18084;53.028;8.834;2023-12-20T04:07:00;5.30;99.90
31455;DHT22;18084;53.028;8.834;2023-12-20T04:09:25;5.50;99.90
31455;DHT22;18084;53.028;8.834;2023-12-20T04:11:51;5.40;99.90
31455;DHT22;18084;53.028;8.834;2023-12-20T04:14:16;5.50;99.90
31455;DHT22;18084;53.028;8.834;2023-12-20T04:16:42;5.40;99.90
31455;DHT22;18084;53.028;8.834;2023-12-20T04:19:07;5.50;99.90
31455;DHT22;18084;53.028;8.834;2023-12-20T04:21:33;5.50;99.90
31455;DHT22;18084;53.028;8.834;2023-12-20T04:23:58;5.50;99.90
31455;DHT22;18084;53.028;8.834;2023-12-20T05:02:37;5.70;99.90
31455;DHT22;18084;53.028;8.834;2023-12-20T05:05:02;5.60;99.90
31455;DHT22;18084;53.028;8.834;2023-12-20T05:07:28;5.80;99.90
31455;DHT22;18084;53.028;8.834;2023-12-20T05:09:53;5.60;99.90
31455;DHT22;18084;53.028;8.834;2023-12-20T05:12:19;5.70;99.90
31455;DHT22;18084;53.028;8.834;2023-12-20T05:14:44;5.70;99.90
31455;DHT22;18084;53.028;8.834;2023-12-20T05:17:10;5.60;99.90
31455;DHT22;18084;53.028;8.834;2023-12-20T05:19:35;5.70;99.90
31455;DHT22;18084;53.028;8.834;2023-12-20T05:22:01;5.80;99.90
31455;DHT22;18084;53.028;8.834;2023-12-20T05:24:27;5.60;99.90
31455;DHT22;18084;53.028;8.834;2023-12-20T05:26:52;5.60;99.90
31455;DHT22;18084;53.028;8.834;2023-12-20T05:29:18;5.80;99.90
31455;DHT22;18084;53.028;8.834;2023-12-20T05:31:43;5.90;99.90
31455;DHT22;18084;53.028;8.834;2023-12-20T05:34:09;5.80;99.90
31455;DHT22;18084;53.028;8.834;2023-12-20T05:36:34;5.70;99.90
31455;DHT22;18084;53.028;8.834;2023-12-20T05:39:00;5.80;99.90
31455;DHT22;18084;53.028;8.834;2023-12-20T05:41:25;5.80;99.90
31455;DHT22;18084;53.028;8.834;2023-12-20T05:43:50;5.70;99.90
31455;DHT22;18084;53.028;8.834;2023-12-20T05:46:16;5.80;99.90
31455;DHT22;18084;53.028;8.834;2023-12-20T05:48:41;5.80;99.90
31455;DHT22;18084;53.028;8.834;2023-12-20T05:51:07;5.80;99.90
31455;DHT22;18084;53.028;8.834;2023-12-20T05:53:33;5.80;99.90
31455;DHT22;18084;53.028;8.834;2023-12-20T05:55:58;5.90;99.90
31455;DHT22;18084;53.028;8.834;2023-12-20T05:58:24;5.90;99.90
31455;DHT22;18084;53.028;8.834;2023-12-20T06:00:50;5.80;99.90
31455;DHT22;18084;53.028;8.834;2023-12-20T06:03:15;5.80;99.90
31455;DHT22;18084;53.028;8.834;2023-12-20T06:05:41;5.90;99.90
31455;DHT22;18084;53.028;8.834;2023-12-20T06:08:06;6.00;99.90
31455;DHT22;18084;53.028;8.834;2023-12-20T06:10:32;6.00;99.90
31455;DHT22;18084;53.028;8.834;2023-12-20T06:12:57;5.90;99.90
31455;DHT22;18084;53.028;8.834;2023-12-20T06:15:24;5.90;99.90
31455;DHT22;18084;53.028;8.834;2023-12-20T06:17:50;5.80;99.90
31455;DHT22;18084;53.028;8.834;2023-12-20T06:20:15;5.80;99.90
31455;DHT22;18084;53.028;8.834;2023-12-20T06:22:40;6.00;99.90
31455;DHT22;18084;53.028;8.834;2023-12-20T06:25:06;6.00;99.90
31455;DHT22;18084;53.028;8.834;2023-12-20T06:27:32;6.10;99.90
31455;DHT22;18084;53.028;8.834;2023-12-20T06:29:57;6.10;99.90
31455;DHT22;18084;53.028;8.834;2023-12-20T06:32:23;6.20;99.90
31455;DHT22;18084;53.028;8.834;2023-12-20T06:34:49;6.20;99.90
31455;DHT22;18084;53.028;8.834;2023-12-20T06:37:16;6.20;99.90
31455;DHT22;18084;53.028;8.834;2023-12-20T06:39:41;6.20;99.90
31455;DHT22;18084;53.028;8.834;2023-12-20T06:42:07;6.00;99.90
31455;DHT22;18084;53.028;8.834;2023-12-20T06:44:32;6.00;99.90
31455;DHT22;18084;53.028;8.834;2023-12-20T06:46:58;6.10;99.90
31455;DHT22;18084;53.028;8.834;2023-12-20T06:49:23;6.20;99.90
31455;DHT22;18084;53.028;8.834;2023-12-20T06:51:49;6.20;99.90
31455;DHT22;18084;53.028;8.834;2023-12-20T06:54:14;6.10;99.90
31455;DHT22;18084;53.028;8.834;2023-12-20T06:56:40;6.20;99.90
31455;DHT22;18084;53.028;8.834;2023-12-20T06:59:06;6.20;99.90
31455;DHT22;18084;53.028;8.834;2023-12-20T07:01:31;6.30;99.90
31455;DHT22;18084;53.028;8.834;2023-12-20T07:03:57;6.10;99.90
31455;DHT22;18084;53.028;8.834;2023-12-20T07:06:22;6.30;99.90
31455;DHT22;18084;53.028;8.834;2023-12-20T07:08:48;6.10;99.90
31455;DHT22;18084;53.028;8.834;2023-12-20T07:11:13;6.20;99.90
31455;DHT22;18084;53.028;8.834;2023-12-20T07:13:39;6.20;99.90
31455;DHT22;18084;53.028;8.834;2023-12-20T07:16:04;6.40;99.90
31455;DHT22;18084;53.028;8.834;2023-12-20T07:18:30;6.30;99.90
31455;DHT22;18084;53.028;8.834;2023-12-20T07:20:55;6.20;99.90
31455;DHT22;18084;53.028;8.834;2023-12-20T07:23:21;6.30;99.90
31455;DHT22;18084;53.028;8.834;2023-12-20T07:25:46;6.10;99.90
31455;DHT22;18084;53.028;8.834;2023-12-20T07:28:12;6.30;99.90
31455;DHT22;18084;53.028;8.834;2023-12-20T07:30:37;6.30;99.90
31455;DHT22;18084;53.028;8.834;2023-12-20T07:33:03;6.30;99.90
31455;DHT22;18084;53.028;8.834;2023-12-20T07:35:28;6.50;99.90
31455;DHT22;18084;53.028;8.834;2023-12-20T07:37:54;6.50;99.90
31455;DHT22;18084;53.028;8.834;2023-12-20T07:40:19;6.40;99.90
31455;DHT22;18084;53.028;8.834;2023-12-20T07:42:45;6.50;99.90
31455;DHT22;18084;53.028;8.834;2023-12-20T07:45:10;6.50;99.90
31455;DHT22;18084;53.028;8.834;2023-12-20T07:47:37;6.60;99.90
31455;DHT22;18084;53.028;8.834;2023-12-20T07:50:02;6.60;99.90
31455;DHT22;18084;53.028;8.834;2023-12-20T07:52:28;6.60;99.90
31455;DHT22;18084;53.028;8.834;2023-12-20T07:54:54;6.50;99.90
31455;DHT22;18084;53.028;8.834;2023-12-20T07:57:20;6.50;99.90
31455;DHT22;18084;53.028;8.834;2023-12-20T07:59:45;6.40;99.90
31455;DHT22;18084;53.028;8.834;2023-12-20T08:02:10;6.40;99.90
31455;DHT22;18084;53.028;8.834;2023-12-20T08:04:36;6.50;99.90
31455;DHT22;18084;53.028;8.834;2023-12-20T08:07:01;6.60;99.90
31455;DHT22;18084;53.028;8.834;2023-12-20T08:09:27;6.60;99.90
31455;DHT22;18084;53.028;8.834;2023-12-20T08:11:52;6.50;99.90
31455;DHT22;18084;53.028;8.834;2023-12-20T08:14:18;6.70;99.90
31455;DHT22;18084;53.028;8.834;2023-12-20T08:16:44;6.80;99.90
31455;DHT22;18084;53.028;8.834;2023-12-20T08:19:09;6.80;99.90
31455;DHT22;18084;53.028;8.834;2023-12-20T08:21:34;6.70;99.90
31455;DHT22;18084;53.028;8.834;2023-12-20T08:24:00;6.70;99.90
31455;DHT22;18084;53.028;8.834;2023-12-20T08:26:29;6.80;99.90
31455;DHT22;18084;53.028;8.834;2023-12-20T08:28:54;7.40;99.90
31455;DHT22;18084;53.028;8.834;2023-12-20T08:31:20;6.70;99.90
31455;DHT22;18084;53.028;8.834;2023-12-20T08:33:46;6.70;99.90
31455;DHT22;18084;53.028;8.834;2023-12-20T08:36:12;6.80;99.90
31455;DHT22;18084;53.028;8.834;2023-12-20T08:38:38;6.60;99.90
31455;DHT22;18084;53.028;8.834;2023-12-20T08:41:03;6.80;99.90
31455;DHT22;18084;53.028;8.834;2023-12-20T08:43:34;6.90;99.90
31455;DHT22;18084;53.028;8.834;2023-12-20T08:45:59;6.90;99.90
31455;DHT22;18084;53.028;8.834;2023-12-20T08:48:25;6.70;99.90
31455;DHT22;18084;53.028;8.834;2023-12-20T08:50:50;6.80;99.90
31455;DHT22;18084;53.028;8.834;2023-12-20T08:53:18;6.90;99.90
31455;DHT22;18084;53.028;8.834;2023-12-20T08:55:43;6.80;99.90
31455;DHT22;18084;53.028;8.834;2023-12-20T08:58:09;6.90;99.90
31455;DHT22;18084;53.028;8.834;2023-12-20T09:00:34;6.90;99.90
31455;DHT22;18084;53.028;8.834;2023-12-20T09:03:01;6.90;99.90
31455;DHT22;18084;53.028;8.834;2023-12-20T09:05:26;6.90;99.90
31455;DHT22;18084;53.028;8.834;2023-12-20T09:07:52;7.00;99.90
31455;DHT22;18084;53.028;8.834;2023-12-20T09:10:17;6.90;99.90
31455;DHT22;18084;53.028;8.834;2023-12-20T09:12:47;6.90;99.90
31455;DHT22;18084;53.028;8.834;2023-12-20T09:15:13;6.80;99.90
31455;DHT22;18084;53.028;8.834;2023-12-20T09:17:38;6.80;99.90
31455;DHT22;18084;53.028;8.834;2023-12-20T09:20:05;6.80;99.90
31455;DHT22;18084;53.028;8.834;2023-12-20T09:22:32;6.80;99.90
31455;DHT22;18084;53.028;8.834;2023-12-20T09:24:58;6.80;99.90
31455;DHT22;18084;53.028;8.834;2023-12-20T09:27:24;6.80;99.90
31455;DHT22;18084;53.028;8.834;2023-12-20T09:29:49;6.70;99.90
31455;DHT22;18084;53.028;8.834;2023-12-20T09:32:15;6.70;99.90
31455;DHT22;18084;53.028;8.834;2023-12-20T09:34:40;6.80;99.90
31455;DHT22;18084;53.028;8.834;2023-12-20T09:37:07;6.90;99.90
31455;DHT22;18084;53.028;8.834;2023-12-20T09:39:33;6.80;99.90
31455;DHT22;18084;53.028;8.834;2023-12-20T09:42:05;6.70;99.90
31455;DHT22;18084;53.028;8.834;2023-12-20T09:44:31;7.00;99.90
31455;DHT22;18084;53.028;8.834;2023-12-20T09:46:57;6.90;99.90
31455;DHT22;18084;53.028;8.834;2023-12-20T09:49:22;7.00;99.90
31455;DHT22;18084;53.028;8.834;2023-12-20T09:51:49;7.00;99.90
31455;DHT22;18084;53.028;8.834;2023-12-20T09:54:16;6.80;99.90
31455;DHT22;18084;53.028;8.834;2023-12-20T09:56:42;6.80;99.90
31455;DHT22;18084;53.028;8.834;2023-12-20T09:59:07;6.70;99.90
31455;DHT22;18084;53.028;8.834;2023-12-20T10:01:34;6.50;99.90
31455;DHT22;18084;53.028;8.834;2023-12-20T10:04:00;6.30;99.90
31455;DHT22;18084;53.028;8.834;2023-12-20T10:06:27;5.90;99.90
31455;DHT22;18084;53.028;8.834;2023-12-20T10:08:52;5.70;99.90
31455;DHT22;18084;53.028;8.834;2023-12-20T10:11:18;5.50;99.90
31455;DHT22;18084;53.028;8.834;2023-12-20T10:13:44;5.40;99.90
31455;DHT22;18084;53.028;8.834;2023-12-20T10:16:12;5.40;99.90
31455;DHT22;18084;53.028;8.834;2023-12-20T10:18:38;5.40;99.90
31455;DHT22;18084;53.028;8.834;2023-12-20T10:21:04;5.40;99.90
31455;DHT22;18084;53.028;8.834;2023-12-20T10:23:29;5.50;99.90
31455;DHT22;18084;53.028;8.834;2023-12-20T10:25:56;5.50;99.90
31455;DHT22;18084;53.028;8.834;2023-12-20T10:28:22;5.50;99.90
31455;DHT22;18084;53.028;8.834;2023-12-20T10:30:50;5.30;99.90
31455;DHT22;18084;53.028;8.834;2023-12-20T10:33:25;5.40;99.90
31455;DHT22;18084;53.028;8.834;2023-12-20T10:35:52;5.20;99.90
31455;DHT22;18084;53.028;8.834;2023-12-20T10:38:17;5.20;99.90
31455;DHT22;18084;53.028;8.834;2023-12-20T10:40:43;5.00;99.90
31455;DHT22;18084;53.028;8.834;2023-12-20T10:43:10;5.20;99.90
31455;DHT22;18084;53.028;8.834;2023-12-20T10:45:35;5.20;99.90
31455;DHT22;18084;53.028;8.834;2023-12-20T10:48:01;5.20;99.90
31455;DHT22;18084;53.028;8.834;2023-12-20T10:50:27;5.20;99.90
31455;DHT22;18084;53.028;8.834;2023-12-20T10:52:54;5.40;99.90
31455;DHT22;18084;53.028;8.834;2023-12-20T10:55:23;5.40;99.90
31455;DHT22;18084;53.028;8.834;2023-12-20T10:57:49;5.50;99.90
31455;DHT22;18084;53.028;8.834;2023-12-20T11:00:17;5.40;99.90
31455;DHT22;18084;53.028;8.834;2023-12-20T11:02:43;5.60;99.90
31455;DHT22;18084;53.028;8.834;2023-12-20T11:07:46;5.50;99.90
31455;DHT22;18084;53.028;8.834;2023-12-20T11:10:20;5.60;99.90
31455;DHT22;18084;53.028;8.834;2023-12-20T11:12:52;6.00;99.90
31455;DHT22;18084;53.028;8.834;2023-12-20T11:15:20;5.70;99.90
31455;DHT22;18084;53.028;8.834;2023-12-20T11:17:45;5.80;99.90
31455;DHT22;18084;53.028;8.834;2023-12-20T11:20:14;5.90;99.90
31455;DHT22;18084;53.028;8.834;2023-12-20T11:22:39;5.90;99.90
31455;DHT22;18084;53.028;8.834;2023-12-20T11:25:08;6.10;99.90
31455;DHT22;18084;53.028;8.834;2023-12-20T11:27:33;6.20;99.90
31455;DHT22;18084;53.028;8.834;2023-12-20T11:29:59;6.20;99.90
31455;DHT22;18084;53.028;8.834;2023-12-20T11:32:27;6.30;99.90
31455;DHT22;18084;53.028;8.834;2023-12-20T11:35:39;6.30;99.90
31455;DHT22;18084;53.028;8.834;2023-12-20T11:37:40;6.50;99.90
31455;DHT22;18084;53.028;8.834;2023-12-20T11:40:13;6.80;99.90
31455;DHT22;18084;53.028;8.834;2023-12-20T11:42:41;6.60;99.90
31455;DHT22;18084;53.028;8.834;2023-12-20T11:45:19;6.60;99.90
31455;DHT22;18084;53.028;8.834;2023-12-20T11:47:47;6.70;99.90
31455;DHT22;18084;53.028;8.834;2023-12-20T11:50:13;6.80;99.90
31455;DHT22;18084;53.028;8.834;2023-12-20T11:52:38;9.40;99.90
31455;DHT22;18084;53.028;8.834;2023-12-20T11:55:04;6.80;99.90
31455;DHT22;18084;53.028;8.834;2023-12-20T11:57:33;7.00;99.90
31455;DHT22;18084;53.028;8.834;2023-12-20T11:59:58;7.00;99.90
31455;DHT22;18084;53.028;8.834;2023-12-20T12:02:24;6.90;99.90
31455;DHT22;18084;53.028;8.834;2023-12-20T12:04:50;6.90;99.90
31455;DHT22;18084;53.028;8.834;2023-12-20T12:07:22;6.90;99.90
31455;DHT22;18084;53.028;8.834;2023-12-20T12:09:48;6.90;99.90
31455;DHT22;18084;53.028;8.834;2023-12-20T12:12:13;6.80;99.90
31455;DHT22;18084;53.028;8.834;2023-12-20T12:14:39;6.90;99.90
31455;DHT22;18084;53.028;8.834;2023-12-20T12:17:12;7.10;99.90
31455;DHT22;18084;53.028;8.834;2023-12-20T12:19:38;7.10;99.90
31455;DHT22;18084;53.028;8.834;2023-12-20T12:22:10;7.10;99.90
31455;DHT22;18084;53.028;8.834;2023-12-20T12:24:38;7.20;99.90
31455;DHT22;18084;53.028;8.834;2023-12-20T12:27:05;7.40;99.90
31455;DHT22;18084;53.028;8.834;2023-12-20T12:29:31;7.40;99.90
31455;DHT22;18084;53.028;8.834;2023-12-20T12:31:56;7.40;99.90
31455;DHT22;18084;53.028;8.834;2023-12-20T12:34:21;7.40;99.90
31455;DHT22;18084;53.028;8.834;2023-12-20T12:36:48;7.30;99.90
31455;DHT22;18084;53.028;8.834;2023-12-20T12:39:13;7.30;99.90
31455;DHT22;18084;53.028;8.834;2023-12-20T12:41:41;7.00;99.90
31455;DHT22;18084;53.028;8.834;2023-12-20T12:44:06;7.10;99.90
31455;DHT22;18084;53.028;8.834;2023-12-20T12:46:33;7.00;99.90
31455;DHT22;18084;53.028;8.834;2023-12-20T12:48:59;7.00;99.90
31455;DHT22;18084;53.028;8.834;2023-12-20T12:51:25;6.80;99.90
31455;DHT22;18084;53.028;8.834;2023-12-20T12:53:50;6.80;99.90
31455;DHT22;18084;53.028;8.834;2023-12-20T12:56:15;6.90;99.90
31455;DHT22;18084;53.028;8.834;2023-12-20T12:58:42;6.80;99.90
31455;DHT22;18084;53.028;8.834;2023-12-20T13:01:07;6.70;99.90
31455;DHT22;18084;53.028;8.834;2023-12-20T13:03:33;6.80;99.90
31455;DHT22;18084;53.028;8.834;2023-12-20T13:05:59;6.90;99.90
31455;DHT22;18084;53.028;8.834;2023-12-20T13:08:25;6.90;99.90
31455;DHT22;18084;53.028;8.834;2023-12-20T13:10:50;6.90;99.90
31455;DHT22;18084;53.028;8.834;2023-12-20T13:13:16;6.60;99.90
31455;DHT22;18084;53.028;8.834;2023-12-20T13:15:42;6.50;99.90
31455;DHT22;18084;53.028;8.834;2023-12-20T13:18:07;6.70;99.90
31455;DHT22;18084;53.028;8.834;2023-12-20T13:20:33;6.60;99.90
31455;DHT22;18084;53.028;8.834;2023-12-20T13:22:59;6.40;99.90
31455;DHT22;18084;53.028;8.834;2023-12-20T13:25:24;6.50;99.90
31455;DHT22;18084;53.028;8.834;2023-12-20T13:27:50;6.50;99.90
31455;DHT22;18084;53.028;8.834;2023-12-20T13:30:18;6.50;99.90
31455;DHT22;18084;53.028;8.834;2023-12-20T13:32:44;6.50;99.90
31455;DHT22;18084;53.028;8.834;2023-12-20T13:35:09;6.60;99.90
31455;DHT22;18084;53.028;8.834;2023-12-20T13:37:35;6.40;99.90
31455;DHT22;18084;53.028;8.834;2023-12-20T13:40:00;6.40;99.90
31455;DHT22;18084;53.028;8.834;2023-12-20T13:42:26;6.50;99.90
31455;DHT22;18084;53.028;8.834;2023-12-20T13:44:53;6.40;99.90
31455;DHT22;18084;53.028;8.834;2023-12-20T13:47:18;6.50;99.90
31455;DHT22;18084;53.028;8.834;2023-12-20T13:49:44;6.40;99.90
31455;DHT22;18084;53.028;8.834;2023-12-20T13:52:10;6.50;99.90
31455;DHT22;18084;53.028;8.834;2023-12-20T13:54:36;6.40;99.90
31455;DHT22;18084;53.028;8.834;2023-12-20T13:57:02;6.40;99.90
31455;DHT22;18084;53.028;8.834;2023-12-20T13:59:28;6.50;99.90
31455;DHT22;18084;53.028;8.834;2023-12-20T14:01:54;6.30;99.90
31455;DHT22;18084;53.028;8.834;2023-12-20T14:04:19;6.30;99.90
31455;DHT22;18084;53.028;8.834;2023-12-20T14:06:45;6.40;99.90
31455;DHT22;18084;53.028;8.834;2023-12-20T14:09:10;6.30;99.90
31455;DHT22;18084;53.028;8.834;2023-12-20T14:11:37;6.20;99.90
31455;DHT22;18084;53.028;8.834;2023-12-20T14:14:06;6.40;99.90
31455;DHT22;18084;53.028;8.834;2023-12-20T14:16:33;6.50;99.90
31455;DHT22;18084;53.028;8.834;2023-12-20T14:18:58;6.40;99.90
31455;DHT22;18084;53.028;8.834;2023-12-20T14:21:24;6.20;99.90
31455;DHT22;18084;53.028;8.834;2023-12-20T14:23:49;6.40;99.90
31455;DHT22;18084;53.028;8.834;2023-12-20T14:26:15;6.40;99.90
31455;DHT22;18084;53.028;8.834;2023-12-20T14:28:41;7.50;99.90
31455;DHT22;18084;53.028;8.834;2023-12-20T14:31:07;9.40;99.90
31455;DHT22;18084;53.028;8.834;2023-12-20T14:33:32;6.20;99.90
31455;DHT22;18084;53.028;8.834;2023-12-20T14:35:58;6.30;99.90
31455;DHT22;18084;53.028;8.834;2023-12-20T14:38:23;6.20;99.90
31455;DHT22;18084;53.028;8.834;2023-12-20T14:40:49;6.30;99.90
31455;DHT22;18084;53.028;8.834;2023-12-20T14:43:15;6.30;99.90
31455;DHT22;18084;53.028;8.834;2023-12-20T14:45:41;6.10;99.90
31455;DHT22;18084;53.028;8.834;2023-12-20T14:48:07;6.30;99.90
31455;DHT22;18084;53.028;8.834;2023-12-20T14:50:38;6.30;99.90
31455;DHT22;18084;53.028;8.834;2023-12-20T14:53:06;6.30;99.90
31455;DHT22;18084;53.028;8.834;2023-12-20T14:55:32;6.20;99.90
31455;DHT22;18084;53.028;8.834;2023-12-20T14:57:57;6.20;99.90
31455;DHT22;18084;53.028;8.834;2023-12-20T15:00:23;6.20;99.90
31455;DHT22;18084;53.028;8.834;2023-12-20T15:02:48;6.30;99.90
31455;DHT22;18084;53.028;8.834;2023-12-20T15:05:14;6.30;99.90
31455;DHT22;18084;53.028;8.834;2023-12-20T15:07:40;6.30;99.90
31455;DHT22;18084;53.028;8.834;2023-12-20T15:10:06;6.30;99.90
31455;DHT22;18084;53.028;8.834;2023-12-20T15:12:31;6.40;99.90
31455;DHT22;18084;53.028;8.834;2023-12-20T15:14:59;6.20;99.90
31455;DHT22;18084;53.028;8.834;2023-12-20T15:17:24;6.30;99.90
31455;DHT22;18084;53.028;8.834;2023-12-20T15:19:51;6.30;99.90
31455;DHT22;18084;53.028;8.834;2023-12-20T15:22:16;6.30;99.90
31455;DHT22;18084;53.028;8.834;2023-12-20T15:24:42;6.60;99.90
31455;DHT22;18084;53.028;8.834;2023-12-20T15:27:09;6.40;99.90
31455;DHT22;18084;53.028;8.834;2023-12-20T15:29:35;6.30;99.90
31455;DHT22;18084;53.028;8.834;2023-12-20T15:32:00;6.30;99.90
31455;DHT22;18084;53.028;8.834;2023-12-20T15:34:26;6.40;99.90
31455;DHT22;18084;53.028;8.834;2023-12-20T15:36:51;6.30;99.90
31455;DHT22;18084;53.028;8.834;2023-12-20T15:39:17;6.10;99.90
31455;DHT22;18084;53.028;8.834;2023-12-20T15:41:43;6.30;99.90
31455;DHT22;18084;53.028;8.834;2023-12-20T15:44:09;6.20;99.90
31455;DHT22;18084;53.028;8.834;2023-12-20T15:46:34;6.40;99.90
31455;DHT22;18084;53.028;8.834;2023-12-20T15:49:00;6.40;99.90
31455;DHT22;18084;53.028;8.834;2023-12-20T15:51:26;6.30;99.90
31455;DHT22;18084;53.028;8.834;2023-12-20T15:53:51;6.10;99.90
31455;DHT22;18084;53.028;8.834;2023-12-20T15:56:17;6.30;99.90
31455;DHT22;18084;53.028;8.834;2023-12-20T15:58:45;6.40;99.90
31455;DHT22;18084;53.028;8.834;2023-12-20T16:01:10;6.40;99.90
31455;DHT22;18084;53.028;8.834;2023-12-20T16:03:36;6.20;99.90
31455;DHT22;18084;53.028;8.834;2023-12-20T16:06:01;6.40;99.90
31455;DHT22;18084;53.028;8.834;2023-12-20T16:08:28;6.20;99.90
31455;DHT22;18084;53.028;8.834;2023-12-20T16:10:53;6.20;99.90
31455;DHT22;18084;53.028;8.834;2023-12-20T16:13:19;6.10;99.90
31455;DHT22;18084;53.028;8.834;2023-12-20T16:15:45;6.30;99.90